Time;durP1;ratioP1;P1;durP2;ratioP2;P2;SDS_P1;SDS_P2;PMS_P1;PMS_P2;Temp;Humidity;BMP_temperature;BMP_pressure;BME280_temperature;BME280_humidity;BME280_pressure;Samples;Min_cycle;Max_cycle;Signal;HPM_P1;HPM_P2
2022/11/21 00:00:54;;;;;;;17.60;12.23;;;;;;;7.14;69.40;99082.81;5073374;28;20500;-61
2022/11/21 00:03:23;;;;;;;16.05;12.30;;;;;;;7.10;69.23;99082.63;5084600;28;20052;-62
2022/11/21 00:05:50;;;;;;;18.58;13.43;;;;;;;7.07;69.91;99080.50;5080988;28;20051;-62
2022/11/21 00:08:19;;;;;;;18.05;13.25;;;;;;;7.08;69.69;99082.16;5073414;28;20048;-61
2022/11/21 00:10:49;;;;;;;16.75;13.05;;;;;;;7.10;69.37;99088.19;5080125;28;20055;-61
2022/11/21 00:13:18;;;;;;;15.40;10.77;;;;;;;7.11;68.51;99095.34;5074792;28;20044;-61
2022/11/21 00:15:46;;;;;;;16.75;11.45;;;;;;;6.96;68.85;99090.28;5074959;28;20393;-61
2022/11/21 00:18:14;;;;;;;14.73;10.85;;;;;;;6.82;68.40;99104.25;5074637;28;20052;-61
2022/11/21 00:20:44;;;;;;;16.98;12.32;;;;;;;6.80;69.08;99108.50;5082680;28;20052;-61
2022/11/21 00:23:11;;;;;;;16.20;11.02;;;;;;;6.74;68.54;99104.25;5076849;28;20055;-61
2022/11/21 00:25:39;;;;;;;13.35;10.93;;;;;;;6.74;68.73;99105.09;5077567;28;20047;-61
2022/11/21 00:28:08;;;;;;;14.32;10.60;;;;;;;6.74;68.18;99107.84;5076842;28;20409;-62
2022/11/21 00:30:35;;;;;;;13.85;10.15;;;;;;;6.73;68.61;99108.97;5083388;28;20393;-61
2022/11/21 00:33:03;;;;;;;13.65;10.07;;;;;;;6.71;68.34;99106.50;5085593;28;20059;-61
2022/11/21 00:35:33;;;;;;;14.30;10.73;;;;;;;6.65;68.32;99112.53;5074740;28;20401;-61
2022/11/21 00:38:01;;;;;;;12.43;9.73;;;;;;;6.68;68.76;99111.91;5074240;28;20056;-61
2022/11/21 00:40:28;;;;;;;12.45;10.05;;;;;;;6.65;67.66;99116.09;5084417;28;20392;-61
2022/11/21 00:42:55;;;;;;;11.63;10.38;;;;;;;6.69;68.18;99116.28;5074284;28;20059;-61
2022/11/21 00:45:24;;;;;;;11.38;9.38;;;;;;;6.72;68.40;99115.66;5081210;28;20066;-61
2022/11/21 00:47:51;;;;;;;12.35;9.63;;;;;;;6.70;68.69;99127.03;5076751;28;20063;-60
2022/11/21 00:50:18;;;;;;;9.48;8.27;;;;;;;6.70;68.14;99123.47;5089768;28;20055;-61
2022/11/21 00:52:45;;;;;;;10.60;8.80;;;;;;;6.70;68.16;99117.94;5075003;28;20055;-61
2022/11/21 00:55:13;;;;;;;9.73;7.88;;;;;;;6.68;67.29;99120.19;5074581;28;20058;-60
2022/11/21 00:57:40;;;;;;;9.85;8.63;;;;;;;6.67;67.53;99124.09;5076116;28;20047;-61
2022/11/21 01:00:09;;;;;;;10.32;8.55;;;;;;;6.66;68.11;99114.19;5074488;28;20056;-61
2022/11/21 01:02:37;;;;;;;8.55;6.85;;;;;;;6.68;67.23;99125.75;5077075;28;20048;-60
2022/11/21 01:05:05;;;;;;;10.02;8.07;;;;;;;6.66;67.59;99116.94;5084137;28;20072;-61
2022/11/21 01:07:32;;;;;;;9.80;8.27;;;;;;;6.64;67.22;99120.03;5087134;28;20063;-60
2022/11/21 01:10:00;;;;;;;8.77;7.82;;;;;;;6.64;66.78;99127.50;5086993;28;20417;-60
2022/11/21 01:12:27;;;;;;;9.93;8.85;;;;;;;6.67;66.80;99130.44;5080172;28;20059;-60
2022/11/21 01:14:54;;;;;;;11.32;9.32;;;;;;;6.69;66.70;99127.34;5083895;28;20056;-60
2022/11/21 01:17:21;;;;;;;10.63;8.38;;;;;;;6.65;66.57;99131.91;5084496;28;20498;-61
2022/11/21 01:19:50;;;;;;;10.88;9.50;;;;;;;6.62;67.39;99132.56;5090852;28;20055;-60
2022/11/21 01:22:17;;;;;;;11.10;8.73;;;;;;;6.55;66.96;99138.56;5081281;28;20059;-60
2022/11/21 01:24:44;;;;;;;11.57;9.75;;;;;;;6.50;67.05;99138.69;5079690;28;20052;-61
2022/11/21 01:27:13;;;;;;;10.38;8.88;;;;;;;6.55;67.07;99137.72;5075195;28;20048;-60
2022/11/21 01:29:41;;;;;;;10.70;8.82;;;;;;;6.56;67.20;99140.19;5073285;28;20045;-60
2022/11/21 01:32:08;;;;;;;10.18;8.40;;;;;;;6.59;66.80;99144.25;5073181;28;20052;-60
2022/11/21 01:34:38;;;;;;;9.35;8.13;;;;;;;6.51;67.07;99143.09;5080636;28;20059;-61
2022/11/21 01:37:07;;;;;;;11.27;8.43;;;;;;;6.53;67.94;99146.38;5073600;28;20049;-61
2022/11/21 01:39:37;;;;;;;9.63;8.45;;;;;;;6.55;67.47;99146.03;5088399;28;20055;-61
2022/11/21 01:42:05;;;;;;;9.52;8.52;;;;;;;6.50;67.81;99147.78;5088318;28;20428;-61
2022/11/21 01:44:48;;;;;;;11.52;9.90;;;;;;;6.55;67.74;99148.78;5075267;28;20393;-60
2022/11/21 01:47:15;;;;;;;10.45;8.70;;;;;;;6.61;68.28;99150.28;5072956;28;20409;-61
2022/11/21 01:49:44;;;;;;;10.30;9.07;;;;;;;6.66;67.66;99152.91;5085035;28;20051;-60
2022/11/21 01:52:18;;;;;;;10.88;8.82;;;;;;;6.65;67.46;99151.25;5090068;28;20071;-60
2022/11/21 01:54:49;;;;;;;9.90;8.43;;;;;;;6.63;67.59;99150.78;5076233;28;20057;-60
2022/11/21 01:57:20;;;;;;;9.98;8.98;;;;;;;6.61;67.73;99158.56;5075026;28;20504;-60
2022/11/21 01:59:52;;;;;;;10.50;9.25;;;;;;;6.61;67.34;99156.63;5091073;28;20047;-61
2022/11/21 02:02:23;;;;;;;12.57;9.88;;;;;;;6.59;67.05;99150.59;5087163;28;20052;-60
2022/11/21 02:04:52;;;;;;;11.13;9.48;;;;;;;6.52;67.25;99155.78;5073212;28;20059;-60
2022/11/21 02:07:24;;;;;;;10.02;7.97;;;;;;;6.50;67.05;99147.78;5080799;28;20508;-60
2022/11/21 02:09:56;;;;;;;10.18;8.48;;;;;;;6.57;67.43;99154.81;5093142;28;20067;-60
2022/11/21 02:12:28;;;;;;;8.77;7.88;;;;;;;6.62;67.60;99149.16;5093366;28;20051;-61
2022/11/21 02:14:58;;;;;;;8.88;7.68;;;;;;;6.69;66.96;99149.50;5072737;28;20059;-60
2022/11/21 02:17:29;;;;;;;8.80;7.50;;;;;;;6.68;66.94;99154.22;5072918;28;20060;-60
2022/11/21 02:19:58;;;;;;;10.25;8.20;;;;;;;6.67;66.62;99151.75;5073043;28;20053;-60
2022/11/21 02:22:38;;;;;;;8.18;7.03;;;;;;;6.65;66.77;99156.78;5073134;28;20049;-60
2022/11/21 02:25:12;;;;;;;7.80;7.00;;;;;;;6.60;66.87;99152.22;5073197;28;20485;-60
2022/11/21 02:27:39;;;;;;;8.40;7.18;;;;;;;6.62;67.60;99158.25;5074465;28;20420;-61
2022/11/21 02:30:09;;;;;;;8.90;7.75;;;;;;;6.61;66.84;99155.81;5093095;28;20449;-60
2022/11/21 02:32:39;;;;;;;8.75;7.85;;;;;;;6.59;66.77;99152.53;5087066;28;20044;-60
2022/11/21 02:35:07;;;;;;;7.85;7.00;;;;;;;6.59;66.91;99149.78;5093181;28;20055;-60
2022/11/21 02:37:37;;;;;;;8.07;6.97;;;;;;;6.62;66.67;99149.16;5092831;28;20408;-60
2022/11/21 02:40:10;;;;;;;7.68;6.72;;;;;;;6.65;66.84;99154.03;5093135;28;20056;-60
2022/11/21 02:42:43;;;;;;;8.90;8.00;;;;;;;6.57;67.01;99152.84;5084013;28;20409;-60
2022/11/21 02:45:16;;;;;;;8.05;6.60;;;;;;;6.59;66.80;99155.31;5072950;28;20465;-60
2022/11/21 02:47:45;;;;;;;8.88;7.53;;;;;;;6.59;67.51;99155.31;5072662;28;20057;-60
2022/11/21 02:50:16;;;;;;;8.32;7.13;;;;;;;6.57;66.85;99152.84;5072711;28;20056;-60
2022/11/21 02:52:43;;;;;;;8.93;7.47;;;;;;;6.59;67.00;99149.78;5072538;28;20080;-60
2022/11/21 02:55:12;;;;;;;9.57;8.57;;;;;;;6.60;67.54;99156.97;5072556;28;20064;-60
2022/11/21 02:57:39;;;;;;;9.13;7.90;;;;;;;6.62;67.01;99161.03;5079081;28;20044;-60
2022/11/21 03:00:10;;;;;;;9.18;7.78;;;;;;;6.61;66.94;99158.56;5092630;28;20056;-60
2022/11/21 03:02:38;;;;;;;10.35;8.48;;;;;;;6.62;66.59;99154.69;5102599;28;20056;-60
2022/11/21 03:05:07;;;;;;;8.80;7.55;;;;;;;6.62;66.60;99161.03;5113103;28;20051;-60
2022/11/21 03:07:37;;;;;;;8.50;7.18;;;;;;;6.62;66.88;99161.03;5112619;28;20056;-61
2022/11/21 03:10:06;;;;;;;9.35;7.28;;;;;;;6.67;66.42;99160.88;5112576;28;20043;-61
2022/11/21 03:12:36;;;;;;;8.48;7.35;;;;;;;6.69;66.93;99160.56;5083311;28;20060;-60
2022/11/21 03:15:03;;;;;;;11.15;8.73;;;;;;;6.69;67.08;99158.59;5072316;28;20056;-60
2022/11/21 03:17:33;;;;;;;9.15;7.45;;;;;;;6.71;67.26;99156.31;5072291;28;20056;-60
2022/11/21 03:20:01;;;;;;;10.73;8.55;;;;;;;6.70;67.04;99156.66;5100837;28;20408;-60
2022/11/21 03:22:28;;;;;;;9.32;8.07;;;;;;;6.70;68.10;99151.13;5113343;27;20059;-60
2022/11/21 03:24:55;;;;;;;8.82;7.50;;;;;;;6.71;67.44;99155.50;5113341;28;20051;-61
2022/11/21 03:27:23;;;;;;;9.68;8.02;;;;;;;6.75;66.88;99156.50;5095805;28;20052;-61
2022/11/21 03:29:54;;;;;;;8.30;6.78;;;;;;;6.75;66.98;99152.94;5091196;28;20048;-61
2022/11/21 03:32:22;;;;;;;8.82;7.85;;;;;;;6.76;66.33;99155.38;5092200;28;20129;-60
2022/11/21 03:34:49;;;;;;;9.80;7.57;;;;;;;6.71;66.64;99161.06;5092191;28;20052;-60
2022/11/21 03:37:16;;;;;;;9.45;8.27;;;;;;;6.68;66.49;99164.47;5092519;28;20055;-60
2022/11/21 03:39:44;;;;;;;11.20;9.60;;;;;;;6.69;66.93;99155.03;5092227;28;20048;-61
2022/11/21 03:42:11;;;;;;;10.73;8.20;;;;;;;6.65;67.11;99168.69;5072892;28;20078;-61
2022/11/21 03:44:38;;;;;;;11.80;9.80;;;;;;;6.64;67.02;99166.25;5075217;28;20056;-61
2022/11/21 03:47:07;;;;;;;10.30;9.13;;;;;;;6.64;67.13;99169.00;5076071;28;20052;-60
2022/11/21 03:49:34;;;;;;;14.60;10.95;;;;;;;6.64;66.62;99163.47;5075925;28;20055;-61
2022/11/21 03:52:01;;;;;;;11.85;9.75;;;;;;;6.68;66.60;99170.00;5076124;28;20052;-61
2022/11/21 03:54:31;;;;;;;11.30;10.00;;;;;;;6.63;67.29;99168.19;5076044;28;20504;-61
2022/11/21 03:56:58;;;;;;;11.07;9.57;;;;;;;6.65;67.11;99173.41;5075980;28;20048;-61
2022/11/21 03:59:26;;;;;;;10.95;9.52;;;;;;;6.63;66.99;99167.38;5094650;28;20048;-65
2022/11/21 04:01:53;;;;;;;10.73;9.60;;;;;;;6.62;68.25;99162.97;5099799;28;20628;-65
2022/11/21 04:04:21;;;;;;;10.88;8.95;;;;;;;6.58;66.93;99162.81;5116347;28;20051;-65
2022/11/21 04:06:49;;;;;;;11.68;9.65;;;;;;;6.51;66.42;99159.69;5116282;27;20056;-65
2022/11/21 04:09:16;;;;;;;11.02;9.88;;;;;;;6.37;66.53;99168.09;5112596;28;20043;-65
2022/11/21 04:11:43;;;;;;;11.82;9.82;;;;;;;6.40;66.97;99164.66;5075427;28;20056;-66
2022/11/21 04:14:10;;;;;;;12.13;9.45;;;;;;;6.43;67.11;99169.59;5087249;28;20056;-65
2022/11/21 04:16:37;;;;;;;10.23;8.68;;;;;;;6.45;67.45;99169.28;5080095;28;20512;-65
2022/11/21 04:19:05;;;;;;;11.88;9.75;;;;;;;6.46;67.47;99170.88;5075394;28;20060;-65
2022/11/21 04:21:33;;;;;;;11.55;9.68;;;;;;;6.43;67.77;99164.06;5086006;28;20063;-64
2022/11/21 04:24:03;;;;;;;9.98;8.88;;;;;;;6.42;67.96;99165.16;5093602;28;20056;-65
2022/11/21 04:26:30;;;;;;;11.23;9.40;;;;;;;6.38;68.19;99160.59;5074738;28;20075;-65
2022/11/21 04:28:58;;;;;;;11.48;9.27;;;;;;;6.38;67.72;99168.91;5074871;28;20061;-65
2022/11/21 04:31:25;;;;;;;11.93;9.85;;;;;;;6.37;68.16;99165.31;5075320;28;20114;-65
2022/11/21 04:33:52;;;;;;;11.45;9.35;;;;;;;6.41;67.65;99169.09;5074766;28;20057;-65
2022/11/21 04:36:23;;;;;;;11.80;9.88;;;;;;;6.40;67.78;99169.41;5075409;28;20048;-65
2022/11/21 04:38:51;;;;;;;12.15;9.48;;;;;;;6.42;67.72;99165.16;5074679;28;20508;-65
2022/11/21 04:41:22;;;;;;;12.40;10.18;;;;;;;6.44;67.97;99164.84;5075389;28;20048;-65
2022/11/21 04:43:50;;;;;;;14.38;11.00;;;;;;;6.47;67.86;99165.03;5074984;28;20052;-65
2022/11/21 04:46:17;;;;;;;13.05;11.23;;;;;;;6.50;67.81;99169.94;5075088;28;20049;-66
2022/11/21 04:48:44;;;;;;;13.25;10.85;;;;;;;6.55;68.02;99173.69;5074636;28;20488;-65
2022/11/21 04:51:11;;;;;;;13.60;10.95;;;;;;;6.54;67.47;99174.84;5075077;28;20056;-65
2022/11/21 04:53:39;;;;;;;14.20;11.27;;;;;;;6.50;67.39;99183.75;5078549;28;20055;-66
2022/11/21 04:56:07;;;;;;;14.68;11.98;;;;;;;6.51;67.70;99184.59;5094327;28;20078;-65
2022/11/21 04:58:35;;;;;;;15.10;11.20;;;;;;;6.50;67.45;99181.00;5094927;28;20059;-66
2022/11/21 05:01:09;;;;;;;15.77;11.98;;;;;;;6.48;67.10;99193.50;5094971;28;20065;-65
2022/11/21 05:03:37;;;;;;;15.57;12.10;;;;;;;6.45;66.65;99194.97;5112913;28;20052;-64
2022/11/21 05:06:04;;;;;;;14.90;12.60;;;;;;;6.40;66.02;99186.00;5115318;27;20480;-65
2022/11/21 05:08:31;;;;;;;16.25;12.45;;;;;;;6.25;66.42;99181.69;5103801;28;20055;-65
2022/11/21 05:13:45;;;;;;;17.95;13.30;;;;;;;6.07;66.61;99189.91;5100446;28;20055;-64
2022/11/21 05:16:12;;;;;;;19.30;13.30;;;;;;;5.96;66.87;99182.97;5094401;28;20063;-64
2022/11/21 05:18:39;;;;;;;19.00;12.85;;;;;;;5.93;66.88;99178.06;5079203;28;20160;-64
2022/11/21 05:21:06;;;;;;;21.30;12.18;;;;;;;5.89;66.80;99168.78;5074294;28;20048;-65
2022/11/21 05:23:34;;;;;;;20.70;13.90;;;;;;;5.84;66.66;99168.91;5078313;28;20499;-65
2022/11/21 05:26:01;;;;;;;18.90;13.05;;;;;;;5.77;67.00;99169.34;5076534;28;20052;-65
2022/11/21 05:28:28;;;;;;;19.83;13.65;;;;;;;5.73;67.26;99173.84;5074306;28;20067;-65
2022/11/21 05:30:57;;;;;;;23.45;14.77;;;;;;;5.72;67.36;99168.66;5074161;28;20048;-65
2022/11/21 05:33:24;;;;;;;21.80;13.88;;;;;;;5.73;67.55;99171.09;5074106;28;20056;-65
2022/11/21 05:35:51;;;;;;;22.17;13.07;;;;;;;5.72;67.96;99169.47;5073953;28;20056;-65
2022/11/21 05:38:19;;;;;;;20.50;14.65;;;;;;;5.77;67.80;99180.38;5074096;28;20412;-65
2022/11/21 05:40:46;;;;;;;20.15;13.63;;;;;;;5.82;68.14;99171.19;5089391;28;20055;-65
2022/11/21 05:45:59;;;;;;;22.65;14.75;;;;;;;5.87;67.55;99176.56;5094640;28;20083;-65
2022/11/21 05:48:27;;;;;;;21.67;14.52;;;;;;;5.85;67.60;99185.16;5080111;28;20067;-64
2022/11/21 05:50:54;;;;;;;18.58;13.23;;;;;;;5.89;67.42;99183.41;5093035;28;20051;-65
2022/11/21 05:53:21;;;;;;;22.45;14.88;;;;;;;5.85;67.22;99174.09;5093552;28;20063;-65
2022/11/21 05:55:49;;;;;;;21.98;14.52;;;;;;;5.84;67.74;99183.53;5093029;28;20409;-64
2022/11/21 05:58:16;;;;;;;23.40;15.20;;;;;;;5.83;67.70;99172.78;5097964;28;20050;-65
2022/11/21 06:00:43;;;;;;;21.83;15.18;;;;;;;5.81;67.95;99170.34;5113551;28;20058;-64
2022/11/21 06:03:26;;;;;;;21.55;14.05;;;;;;;5.88;68.29;99156.91;5128769;27;20058;-65
2022/11/21 06:05:58;;;;;;;22.20;14.60;;;;;;;5.87;67.90;99160.78;5123774;27;20476;-64
2022/11/21 06:08:25;;;;;;;22.30;14.77;;;;;;;5.81;68.08;99164.81;5099142;28;20052;-65
2022/11/21 06:10:52;;;;;;;20.80;14.05;;;;;;;5.81;67.48;99158.47;5092776;28;20390;-65
2022/11/21 06:13:22;;;;;;;23.90;15.52;;;;;;;5.72;68.13;99160.38;5093124;28;20048;-64
2022/11/21 06:15:55;;;;;;;21.10;13.70;;;;;;;5.69;67.89;99157.09;5100635;28;20055;-64
2022/11/21 06:18:24;;;;;;;20.45;13.35;;;;;;;5.66;68.27;99160.47;5104751;28;20058;-65
2022/11/21 06:20:52;;;;;;;22.25;14.32;;;;;;;5.77;67.99;99154.72;5096086;28;20071;-65
2022/11/21 06:23:19;;;;;;;23.23;14.77;;;;;;;5.81;68.22;99153.75;5093264;28;20155;-64
2022/11/21 06:25:47;;;;;;;20.13;13.65;;;;;;;5.90;68.94;99162.13;5107705;28;20048;-64
2022/11/21 06:28:14;;;;;;;22.08;13.90;;;;;;;5.93;68.72;99164.25;5093337;28;20052;-64
2022/11/21 06:30:41;;;;;;;25.10;16.27;;;;;;;5.98;68.46;99166.09;5099014;28;20484;-65
2022/11/21 06:33:08;;;;;;;21.58;14.45;;;;;;;5.99;68.48;99157.50;5103414;28;20047;-64
2022/11/21 06:35:39;;;;;;;23.33;15.50;;;;;;;6.04;68.29;99151.81;5095841;28;20044;-64
2022/11/21 06:38:06;;;;;;;19.83;13.00;;;;;;;6.08;68.10;99152.00;5103301;28;20056;-65
2022/11/21 06:40:33;;;;;;;24.33;16.48;;;;;;;6.12;68.03;99157.72;5096507;27;20047;-65
2022/11/21 06:43:01;;;;;;;21.40;15.05;;;;;;;6.18;68.17;99151.72;5122398;27;20491;-65
2022/11/21 06:45:28;;;;;;;24.13;17.45;;;;;;;6.26;67.81;99148.19;5096004;28;20495;-65
2022/11/21 06:47:55;;;;;;;27.85;15.70;;;;;;;6.25;68.33;99151.28;5096419;28;20067;-65
2022/11/21 06:50:25;;;;;;;23.02;15.00;;;;;;;6.28;68.06;99147.88;5102360;28;20048;-65
2022/11/21 06:52:54;;;;;;;18.88;12.88;;;;;;;6.36;67.64;99140.75;5100794;28;20377;-65
2022/11/21 06:55:22;;;;;;;19.88;13.13;;;;;;;6.35;67.35;99131.63;5112125;28;20490;-65
2022/11/21 06:57:49;;;;;;;21.95;13.52;;;;;;;6.33;67.70;99127.56;5098949;28;20052;-65
2022/11/21 07:00:17;;;;;;;18.17;13.07;;;;;;;6.36;68.25;99135.22;5100490;28;20055;-65
2022/11/21 07:02:45;;;;;;;20.13;12.75;;;;;;;6.36;68.53;99137.97;5102019;28;20052;-65
2022/11/21 07:05:12;;;;;;;20.48;14.15;;;;;;;6.40;68.17;99130.66;5111178;28;20527;-66
2022/11/21 07:07:39;;;;;;;19.92;13.00;;;;;;;6.38;68.00;99125.47;5105084;28;20055;-65
2022/11/21 07:10:09;;;;;;;19.70;13.13;;;;;;;6.33;67.88;99136.66;5110328;28;20055;-65
2022/11/21 07:15:21;;;;;;;20.10;14.40;;;;;;;6.37;67.85;99140.44;5093288;27;20055;-66
2022/11/21 07:17:48;;;;;;;20.52;13.75;;;;;;;6.46;67.74;99134.94;5103185;28;20051;-64
2022/11/21 07:20:15;;;;;;;21.50;14.95;;;;;;;6.52;68.32;99143.91;5112118;28;20051;-65
2022/11/21 07:22:43;;;;;;;23.02;14.20;;;;;;;6.58;67.87;99142.63;5093256;28;20048;-65
2022/11/21 07:25:11;;;;;;;20.98;14.27;;;;;;;6.64;67.87;99146.88;5091797;28;20063;-65
2022/11/21 07:27:38;;;;;;;22.20;15.05;;;;;;;6.61;68.00;99139.22;5099214;28;20411;-66
2022/11/21 07:30:07;;;;;;;22.40;15.15;;;;;;;6.66;68.12;99145.41;5098992;28;20055;-66
2022/11/21 07:32:34;;;;;;;22.00;14.80;;;;;;;6.69;67.48;99152.25;5107877;28;20055;-65
2022/11/21 07:35:02;;;;;;;24.70;16.73;;;;;;;6.72;67.81;99146.09;5103755;28;20073;-65
2022/11/21 07:37:29;;;;;;;23.40;15.90;;;;;;;6.77;67.95;99145.13;5103017;28;20052;-65
2022/11/21 07:39:56;;;;;;;21.70;14.48;;;;;;;6.76;67.41;99149.00;5102571;28;20420;-65
2022/11/21 07:42:25;;;;;;;21.27;14.88;;;;;;;6.78;67.96;99153.09;5112416;28;20051;-65
2022/11/21 07:44:52;;;;;;;23.90;16.83;;;;;;;6.79;67.64;99154.72;5111752;28;20056;-65
2022/11/21 07:47:20;;;;;;;22.02;16.40;;;;;;;6.89;67.61;99153.63;5110197;28;20047;-64
2022/11/21 07:49:47;;;;;;;22.77;16.60;;;;;;;6.90;67.45;99155.25;5091427;28;20056;-65
2022/11/21 07:52:14;;;;;;;24.13;16.20;;;;;;;6.99;67.85;99147.78;5091808;28;20052;-65
2022/11/21 07:54:41;;;;;;;24.73;16.55;;;;;;;7.07;67.73;99143.38;5106206;28;20062;-64
2022/11/21 07:57:08;;;;;;;23.42;15.68;;;;;;;7.09;67.90;99136.38;5102211;28;20055;-64
2022/11/21 07:59:37;;;;;;;24.17;16.52;;;;;;;7.12;66.63;99134.94;5106728;28;20408;-64
2022/11/21 08:02:04;;;;;;;21.58;15.90;;;;;;;7.16;66.28;99130.38;5102839;28;20070;-68
2022/11/21 08:04:31;;;;;;;21.77;14.80;;;;;;;7.22;66.38;99126.28;5104561;28;20059;-68
2022/11/21 08:06:59;;;;;;;23.80;16.48;;;;;;;7.29;66.52;99129.41;5104786;28;20055;-67
2022/11/21 08:09:28;;;;;;;25.70;15.75;;;;;;;7.34;67.18;99133.16;5109986;28;20059;-68
2022/11/21 08:11:55;;;;;;;22.27;14.95;;;;;;;7.37;66.15;99130.53;5110104;28;20043;-68
2022/11/21 08:14:22;;;;;;;22.40;15.27;;;;;;;7.44;67.06;99119.78;5103578;28;20051;-68
2022/11/21 08:16:52;;;;;;;21.95;15.35;;;;;;;7.47;66.63;99118.31;5112440;28;20047;-66
2022/11/21 08:19:20;;;;;;;25.23;15.13;;;;;;;7.49;66.41;99111.28;5125963;28;20051;-68
2022/11/21 08:21:47;;;;;;;22.17;15.52;;;;;;;7.55;66.02;99122.22;5106389;28;20059;-67
2022/11/21 08:24:16;;;;;;;22.88;15.27;;;;;;;7.61;65.84;99126.44;5114538;28;20399;-67
2022/11/21 08:26:44;;;;;;;23.53;15.87;;;;;;;7.49;65.94;99124.34;5118226;28;20047;-65
2022/11/21 08:29:11;;;;;;;25.77;17.23;;;;;;;7.59;66.98;99120.41;5105538;27;20074;-65
2022/11/21 08:31:39;;;;;;;27.13;18.83;;;;;;;7.47;66.21;99110.78;5115353;27;20047;-67
2022/11/21 08:34:08;;;;;;;24.27;18.40;;;;;;;7.57;66.76;99109.66;5118749;27;20518;-68
2022/11/21 08:36:35;;;;;;;20.27;15.33;;;;;;;7.66;66.72;99106.88;5104688;27;20044;-67
2022/11/21 08:39:04;;;;;;;18.38;13.50;;;;;;;7.76;66.78;99105.72;5094642;28;20071;-68
2022/11/21 08:44:16;;;;;;;18.35;13.05;;;;;;;7.94;66.95;99093.44;5118926;28;20058;-68
2022/11/21 08:46:43;;;;;;;18.48;13.73;;;;;;;8.02;66.05;99094.53;5098952;28;20499;-68
2022/11/21 08:49:12;;;;;;;17.70;12.85;;;;;;;8.08;66.61;99098.78;5112101;28;20055;-68
2022/11/21 08:51:39;;;;;;;18.50;14.18;;;;;;;8.12;65.23;99094.19;5109406;27;20059;-64
2022/11/21 08:54:08;;;;;;;18.88;13.13;;;;;;;8.19;65.25;99100.06;5114360;28;20060;-68
2022/11/21 08:56:35;;;;;;;19.42;13.65;;;;;;;8.21;64.87;99095.00;5096805;28;20052;-68
2022/11/21 08:59:02;;;;;;;18.27;12.75;;;;;;;8.28;65.24;99088.91;5094793;28;20059;-68
2022/11/21 09:01:30;;;;;;;18.45;13.50;;;;;;;8.27;65.21;99090.03;5100337;28;20047;-68
2022/11/21 09:03:57;;;;;;;17.38;13.43;;;;;;;8.30;65.83;99083.84;5106309;28;20064;-68
2022/11/21 09:06:26;;;;;;;18.90;13.13;;;;;;;8.32;65.91;99087.91;5097032;28;20059;-68
2022/11/21 09:08:53;;;;;;;19.00;13.50;;;;;;;8.34;65.07;99082.84;5092939;28;20056;-67
2022/11/21 09:11:20;;;;;;;19.05;14.35;;;;;;;8.38;65.29;99080.22;5093412;28;20044;-69
2022/11/21 09:18:01;;;;;;;19.48;13.93;;;;;;;8.48;66.24;99076.25;5097694;28;20416;-68
2022/11/21 09:19:21;;;;;;;21.55;15.65;;;;;;;8.54;65.51;99072.97;5112592;28;20051;-67
2022/11/21 09:21:51;;;;;;;23.50;16.75;;;;;;;8.66;66.20;99083.34;5093908;28;20472;-68
2022/11/21 09:24:18;;;;;;;26.67;17.00;;;;;;;8.65;66.21;99092.00;5105027;28;20059;-68
2022/11/21 09:26:46;;;;;;;24.15;16.52;;;;;;;8.60;65.20;99101.34;5101228;28;20052;-68
2022/11/21 09:29:15;;;;;;;20.25;14.52;;;;;;;8.63;64.76;99091.53;5107498;28;20047;-67
2022/11/21 09:31:42;;;;;;;19.97;14.07;;;;;;;8.63;66.05;99097.91;5112336;27;20051;-64
2022/11/21 09:34:10;;;;;;;22.10;15.05;;;;;;;8.64;65.65;99093.97;5109156;28;20059;-68
2022/11/21 09:36:37;;;;;;;21.38;15.38;;;;;;;8.66;64.78;99093.66;5094575;28;20481;-68
2022/11/21 09:39:05;;;;;;;20.15;14.00;;;;;;;8.63;63.99;99088.75;5107861;28;20055;-68
2022/11/21 09:41:52;;;;;;;23.48;14.23;;;;;;;8.53;65.17;99081.66;5094088;28;20047;-65
2022/11/21 09:44:31;;;;;;;22.67;15.02;;;;;;;8.56;64.67;99088.47;5100741;28;20480;-68
2022/11/21 09:47:05;;;;;;;22.02;14.23;;;;;;;8.57;65.22;99092.88;5104671;28;20415;-69
2022/11/21 09:49:41;;;;;;;19.33;13.98;;;;;;;8.56;65.08;99080.16;5098689;28;20055;-66
2022/11/21 09:52:14;;;;;;;20.85;15.18;;;;;;;8.55;65.52;99076.56;5112629;28;20504;-68
2022/11/21 09:54:48;;;;;;;23.63;15.13;;;;;;;8.61;65.46;99079.94;5108351;28;20047;-67
2022/11/21 09:57:19;;;;;;;20.83;14.85;;;;;;;8.56;65.35;99082.94;5104992;28;20063;-68
2022/11/21 09:59:47;;;;;;;21.88;15.88;;;;;;;8.61;64.48;99078.00;5107469;27;20044;-67
2022/11/21 10:02:19;;;;;;;21.52;15.60;;;;;;;8.64;64.41;99074.53;5104457;28;20048;-68
2022/11/21 10:04:47;;;;;;;23.40;16.73;;;;;;;8.65;64.63;99075.34;5101382;28;20345;-68
2022/11/21 10:07:20;;;;;;;21.13;14.90;;;;;;;8.60;64.40;99070.00;5103648;28;20055;-68
2022/11/21 10:10:03;;;;;;;22.25;15.57;;;;;;;8.64;65.01;99079.28;5102887;28;20047;-67
2022/11/21 10:12:40;;;;;;;22.40;15.70;;;;;;;8.62;64.58;99064.94;5098298;28;20044;-67
2022/11/21 10:15:25;;;;;;;19.85;14.75;;;;;;;8.62;65.29;99062.16;5108977;28;20056;-68
2022/11/21 10:18:24;;;;;;;23.15;16.25;;;;;;;8.68;65.98;99055.25;5100131;27;20040;-67
2022/11/21 10:20:59;;;;;;;19.02;14.05;;;;;;;8.80;65.17;99049.81;5099792;28;20062;-66
2022/11/21 10:23:50;;;;;;;19.38;14.55;;;;;;;8.98;64.46;99047.69;5103148;28;20051;-67
2022/11/21 10:26:25;;;;;;;22.48;15.25;;;;;;;9.21;65.94;99039.81;5090641;28;20053;-68
2022/11/21 10:28:59;;;;;;;22.33;14.50;;;;;;;9.38;64.94;99038.03;5092417;28;20055;-67
2022/11/21 10:31:38;;;;;;;23.17;15.07;;;;;;;9.71;63.57;99026.91;5095504;28;20052;-68
2022/11/21 10:34:11;;;;;;;21.27;14.55;;;;;;;9.99;64.35;99023.47;5095924;27;20067;-68
2022/11/21 10:36:43;;;;;;;21.92;15.18;;;;;;;10.10;63.73;99011.53;5107657;28;20480;-68
2022/11/21 10:39:23;;;;;;;20.85;14.48;;;;;;;10.30;63.47;99009.03;5108345;28;20055;-67
2022/11/21 10:41:58;;;;;;;21.95;15.48;;;;;;;10.38;63.05;98999.75;5095077;28;20052;-67
2022/11/21 10:47:26;;;;;;;20.05;15.10;;;;;;;10.49;62.93;98991.72;5108587;27;20083;-68
2022/11/21 10:50:03;;;;;;;21.65;14.13;;;;;;;10.49;62.52;98986.16;5103122;28;20044;-68
2022/11/21 10:52:36;;;;;;;22.15;16.20;;;;;;;10.50;62.48;98988.59;5103694;28;20044;-68
2022/11/21 10:55:09;;;;;;;22.83;15.98;;;;;;;10.50;62.77;98974.69;5097205;28;20411;-68
2022/11/21 10:57:45;;;;;;;21.77;15.10;;;;;;;10.41;62.63;98973.97;5102212;28;20427;-67
2022/11/21 11:00:23;;;;;;;23.00;15.15;;;;;;;10.45;63.65;98979.66;5098838;27;20129;-67
2022/11/21 11:03:05;;;;;;;23.92;16.58;;;;;;;10.46;63.64;98968.19;5099728;28;20078;-67
2022/11/21 11:05:36;;;;;;;21.02;14.98;;;;;;;10.51;63.22;98953.22;5103716;28;20404;-67
2022/11/21 11:08:08;;;;;;;22.10;15.20;;;;;;;10.54;62.60;98950.53;5103811;28;20074;-67
2022/11/21 11:10:40;;;;;;;21.35;14.73;;;;;;;10.56;63.00;98959.34;5096110;28;20054;-67
2022/11/21 11:16:04;;;;;;;21.10;15.60;;;;;;;10.70;62.42;98952.56;5111804;28;20063;-67
2022/11/21 11:18:35;;;;;;;22.88;15.52;;;;;;;10.70;63.05;98949.78;5104717;28;20048;-67
2022/11/21 11:21:24;;;;;;;19.20;15.27;;;;;;;11.03;62.03;98952.34;5091965;28;20048;-68
2022/11/21 11:23:53;;;;;;;22.42;16.08;;;;;;;11.14;62.32;98939.50;5095680;28;20055;-68
2022/11/21 11:26:27;;;;;;;19.38;14.98;;;;;;;11.36;61.78;98937.31;5099737;28;20058;-67
2022/11/21 11:29:08;;;;;;;22.60;15.63;;;;;;;11.50;62.06;98928.50;5103844;28;20044;-67
2022/11/21 11:31:49;;;;;;;17.48;13.85;;;;;;;11.62;61.48;98925.66;5099578;28;20182;-66
2022/11/21 11:34:17;;;;;;;18.45;14.20;;;;;;;11.86;60.87;98918.25;5096310;28;20523;-67
2022/11/21 11:37:11;;;;;;;19.83;14.68;;;;;;;12.73;58.55;98907.91;5106431;28;20056;-64
2022/11/21 11:39:54;;;;;;;16.33;13.80;;;;;;;15.85;53.14;98895.66;5093482;28;20052;-66
2022/11/21 11:48:44;;;;;;;17.27;13.40;;;;;;;13.50;55.19;98900.59;5108057;27;20062;-66
2022/11/21 11:51:21;;;;;;;18.70;13.55;;;;;;;13.24;56.98;98893.72;5111809;28;20060;-65
2022/11/21 11:53:53;;;;;;;17.35;14.10;;;;;;;12.92;57.50;98888.31;5112669;28;20412;-65
2022/11/21 11:56:24;;;;;;;19.83;14.77;;;;;;;12.73;57.84;98877.97;5097940;28;20060;-66
2022/11/21 11:58:56;;;;;;;17.90;13.75;;;;;;;12.54;57.94;98881.56;5095842;28;20058;-67
2022/11/21 12:01:32;;;;;;;17.23;14.18;;;;;;;12.48;58.81;98877.44;5110188;28;20062;-65
2022/11/21 12:04:05;;;;;;;18.77;13.57;;;;;;;12.39;59.34;98869.28;5106626;28;20055;-65
2022/11/21 12:06:36;;;;;;;18.35;13.45;;;;;;;12.17;59.64;98870.78;5108058;28;20051;-65